Terminal Aerodrome Forecast
Issued by NWS

Home | Current Version | Previous Version | Text Only | Print | Product List | Glossary On
Versions: 1 2 3 4 5 6 7 8 9 10 11 12 13 14 15 16 17 18 19 20
584
FTUS43 KGRR 170700 AAA
TAFAZO
TAF AMD
KAZO 170700Z 1707/1806 14007KT P6SM VCSH BKN090
      TEMPO 1707/1711 4SM TSRA OVC040CB
     FM171800 23016G23KT P6SM VCTS BKN035CB BKN120
     FM172200 24015G23KT P6SM BKN060
     FM180000 24011KT P6SM OVC050=

USA.gov is the U.S. government's official web portal to all federal, state and local government web resources and services.